createdAt,value
2019-01-19T00:02:37.808Z,6.47
2019-01-19T00:05:18.628Z,6.93
2019-01-19T00:07:59.387Z,6.73
2019-01-19T00:10:39.966Z,6.37
2019-01-19T00:13:21.396Z,5.63
2019-01-19T00:16:02.847Z,5.93
2019-01-19T00:18:44.284Z,6.27
2019-01-19T00:21:24.905Z,6.27
2019-01-19T00:24:05.866Z,7.07
2019-01-19T00:26:46.596Z,5.97
2019-01-19T00:29:27.894Z,6.03
2019-01-19T00:32:09.336Z,6.30
2019-01-19T00:34:50.068Z,6.23
2019-01-19T00:37:30.701Z,6.03
2019-01-19T00:40:34.301Z,5.90
2019-01-19T00:43:36.983Z,6.00
2019-01-19T00:46:44.428Z,5.90
2019-01-19T00:49:25.461Z,5.83
2019-01-19T00:52:06.178Z,6.67
2019-01-19T00:54:47.660Z,5.97
2019-01-19T00:57:28.460Z,5.80
2019-01-19T01:00:09.116Z,6.13
2019-01-19T01:02:49.874Z,5.67
2019-01-19T01:05:30.697Z,5.93
2019-01-19T01:08:11.836Z,6.10
2019-01-19T01:10:52.384Z,6.40
2019-01-19T01:13:33.006Z,6.20
2019-01-19T01:16:13.786Z,6.30
2019-01-19T01:18:55.097Z,6.00
2019-01-19T01:21:35.789Z,6.67
2019-01-19T01:24:16.652Z,6.20
2019-01-19T01:26:57.317Z,6.37
2019-01-19T01:29:57.946Z,6.00
2019-01-19T01:35:51.977Z,6.20
2019-01-19T01:38:33.423Z,6.53
2019-01-19T01:41:14.774Z,6.83
2019-01-19T01:43:55.501Z,6.33
2019-01-19T01:46:36.505Z,6.20
2019-01-19T01:49:17.169Z,6.40
2019-01-19T01:51:58.605Z,7.00
2019-01-19T01:54:39.801Z,6.53
2019-01-19T01:57:21.260Z,6.67
2019-01-19T02:00:01.798Z,6.53
2019-01-19T02:02:42.480Z,6.70
2019-01-19T02:05:23.327Z,6.43
2019-01-19T02:08:04.401Z,6.00
2019-01-19T02:10:44.901Z,6.70
2019-01-19T02:13:29.948Z,6.53
2019-01-19T02:16:37.402Z,6.53
2019-01-19T02:22:40.053Z,6.87
2019-01-19T02:25:21.303Z,6.90
2019-01-19T02:28:02.764Z,7.03
2019-01-19T02:30:44.240Z,7.10
2019-01-19T02:33:25.620Z,7.40
2019-01-19T02:36:06.210Z,7.10
2019-01-19T02:38:46.812Z,6.63
2019-01-19T02:45:01.608Z,7.27
2019-01-19T02:47:43.049Z,7.07
2019-01-19T02:50:24.581Z,6.87
2019-01-19T02:53:06.052Z,6.90
2019-01-19T02:55:47.352Z,7.27
2019-01-19T02:58:28.638Z,8.40
2019-01-19T03:01:09.417Z,7.63
2019-01-19T03:03:50.045Z,7.43
2019-01-19T03:06:30.660Z,8.07
2019-01-19T03:09:12.192Z,8.00
2019-01-19T03:11:53.665Z,7.50
2019-01-19T03:14:35.075Z,7.53
2019-01-19T03:17:15.773Z,7.10
2019-01-19T03:19:57.072Z,7.73
2019-01-19T03:22:37.663Z,7.53
2019-01-19T03:25:19.158Z,7.13
2019-01-19T03:28:00.110Z,7.10
2019-01-19T03:30:40.794Z,6.87
2019-01-19T03:33:22.266Z,7.57
2019-01-19T03:36:04.565Z,7.13
2019-01-19T03:38:45.885Z,7.23
2019-01-19T03:41:32.234Z,6.93
2019-01-19T03:44:39.636Z,6.47
2019-01-19T03:47:20.957Z,7.00
2019-01-19T03:50:02.296Z,6.90
2019-01-19T03:52:43.166Z,6.47
2019-01-19T03:55:24.539Z,6.87
2019-01-19T03:58:05.896Z,6.17
2019-01-19T04:00:47.269Z,6.60
2019-01-19T04:03:27.973Z,5.73
2019-01-19T04:06:12.890Z,6.30
2019-01-19T04:08:51.831Z,6.43
2019-01-19T04:11:32.501Z,6.67
2019-01-19T04:14:13.238Z,6.63
2019-01-19T04:16:54.574Z,7.30
2019-01-19T04:19:36.004Z,6.87
2019-01-19T04:22:17.253Z,6.83
2019-01-19T04:24:57.829Z,7.03
2019-01-19T04:27:38.449Z,8.67
2019-01-19T04:30:19.086Z,7.73
2019-01-19T04:32:59.837Z,7.40
2019-01-19T04:35:41.166Z,7.40
2019-01-19T04:38:21.789Z,7.97
2019-01-19T04:41:02.700Z,7.73
2019-01-19T04:43:44.149Z,7.80
2019-01-19T04:46:24.827Z,7.70
2019-01-19T04:49:05.481Z,7.80
2019-01-19T04:51:46.021Z,7.43
2019-01-19T04:54:26.761Z,7.37
2019-01-19T04:57:08.078Z,7.43
2019-01-19T04:59:48.816Z,6.77
2019-01-19T05:02:29.368Z,7.77
2019-01-19T05:05:10.720Z,7.33
2019-01-19T05:07:51.661Z,7.27
2019-01-19T05:10:32.355Z,7.50
2019-01-19T05:13:13.056Z,7.70
2019-01-19T05:15:54.040Z,7.47
2019-01-19T05:18:35.426Z,8.07
2019-01-19T05:21:16.705Z,8.37
2019-01-19T05:23:58.169Z,8.13
2019-01-19T05:26:38.910Z,8.20
2019-01-19T05:29:20.012Z,7.67
2019-01-19T05:32:00.739Z,8.07
2019-01-19T05:34:41.637Z,8.27
2019-01-19T05:37:21.151Z,7.93
2019-01-19T05:40:01.879Z,8.73
2019-01-19T05:42:42.697Z,8.03
2019-01-19T05:45:23.449Z,8.47
2019-01-19T05:48:04.676Z,9.33
2019-01-19T05:50:45.356Z,8.37
2019-01-19T05:53:26.233Z,8.17
2019-01-19T05:56:05.676Z,8.23
2019-01-19T06:01:41.302Z,8.73
2019-01-19T06:04:22.171Z,8.27
2019-01-19T06:07:03.533Z,8.77
2019-01-19T06:09:44.781Z,8.77
2019-01-19T06:12:25.356Z,8.23
2019-01-19T06:15:06.049Z,8.47
2019-01-19T06:17:46.945Z,8.13
2019-01-19T06:20:27.560Z,8.90
2019-01-19T06:23:08.276Z,9.40
2019-01-19T06:25:49.622Z,9.60
2019-01-19T06:28:30.335Z,9.87
2019-01-19T06:31:10.944Z,9.50
2019-01-19T06:33:52.377Z,9.80
2019-01-19T06:36:32.928Z,9.47
2019-01-19T06:39:14.442Z,9.83
2019-01-19T06:41:55.090Z,9.80
2019-01-19T06:44:36.389Z,9.60
2019-01-19T06:47:16.957Z,9.47
2019-01-19T06:49:58.069Z,9.37
2019-01-19T06:52:38.911Z,9.33
2019-01-19T06:55:19.676Z,9.40
2019-01-19T07:01:07.804Z,9.07
2019-01-19T07:03:48.538Z,9.83
2019-01-19T07:06:29.289Z,10.43
2019-01-19T07:09:09.895Z,10.70
2019-01-19T07:11:50.940Z,9.47
2019-01-19T07:14:31.440Z,10.13
2019-01-19T07:17:12.440Z,9.83
2019-01-19T07:19:53.312Z,10.00
2019-01-19T07:22:33.889Z,9.90
2019-01-19T07:25:14.724Z,14.43
2019-01-19T07:27:55.908Z,11.00
2019-01-19T07:30:36.676Z,10.13
2019-01-19T07:33:18.008Z,10.20
2019-01-19T07:35:59.504Z,10.43
2019-01-19T07:38:40.341Z,10.57
2019-01-19T07:41:21.721Z,10.77
2019-01-19T07:44:02.478Z,10.57
2019-01-19T07:46:44.161Z,12.37
2019-01-19T07:49:25.260Z,12.67
2019-01-19T07:52:05.835Z,13.30
2019-01-19T07:54:46.412Z,12.83
2019-01-19T07:57:31.201Z,12.90
2019-01-19T08:00:13.185Z,14.33
2019-01-19T08:05:48.649Z,14.87
2019-01-19T08:08:30.094Z,15.07
2019-01-19T08:11:11.488Z,14.53
2019-01-19T08:13:52.204Z,14.30
2019-01-19T08:16:32.776Z,15.03
2019-01-19T08:19:13.410Z,14.20
2019-01-19T08:21:54.779Z,14.07
2019-01-19T08:24:35.444Z,13.23
2019-01-19T08:27:16.784Z,14.50
2019-01-19T08:29:58.186Z,14.10
2019-01-19T08:32:39.641Z,14.00
2019-01-19T08:35:21.104Z,12.77
2019-01-19T08:38:01.871Z,12.43
2019-01-19T08:40:43.010Z,12.80
2019-01-19T08:43:30.232Z,12.77
2019-01-19T08:46:11.591Z,12.93
2019-01-19T08:48:52.418Z,12.33
2019-01-19T08:51:33.780Z,12.10
2019-01-19T08:54:15.272Z,12.23
2019-01-19T08:56:56.121Z,11.43
2019-01-19T08:59:36.957Z,12.17
2019-01-19T09:02:17.680Z,13.00
2019-01-19T09:04:59.064Z,12.50
2019-01-19T09:07:40.420Z,13.07
2019-01-19T09:10:21.549Z,12.60
2019-01-19T09:13:02.775Z,12.10
2019-01-19T09:15:44.044Z,12.83
2019-01-19T09:18:24.852Z,12.17
2019-01-19T09:21:05.429Z,11.83
2019-01-19T09:24:04.879Z,11.90
2019-01-19T09:26:46.436Z,13.73
2019-01-19T09:29:27.954Z,12.60
2019-01-19T09:32:09.227Z,12.50
2019-01-19T09:34:50.078Z,13.63
2019-01-19T09:37:30.655Z,13.67
2019-01-19T09:40:11.330Z,12.97
2019-01-19T09:42:52.705Z,11.93
2019-01-19T09:45:34.062Z,11.80
2019-01-19T09:48:15.555Z,12.33
2019-01-19T09:50:56.733Z,13.10
2019-01-19T09:53:37.541Z,13.13
2019-01-19T09:56:18.652Z,13.50
2019-01-19T09:59:00.101Z,13.47
2019-01-19T10:01:40.867Z,13.77
2019-01-19T10:04:21.908Z,13.73
2019-01-19T10:07:03.210Z,14.10
2019-01-19T10:09:43.937Z,14.90
2019-01-19T10:12:24.728Z,12.97
2019-01-19T10:15:05.508Z,14.43
2019-01-19T10:17:46.379Z,14.30
2019-01-19T10:20:27.828Z,13.23
2019-01-19T10:23:09.374Z,13.93
2019-01-19T10:25:50.542Z,13.87
2019-01-19T10:28:30.749Z,13.10
2019-01-19T10:34:19.501Z,11.80
2019-01-19T10:37:00.225Z,11.30
2019-01-19T10:39:39.783Z,11.70
2019-01-19T10:42:28.225Z,11.50
2019-01-19T10:45:31.753Z,11.80
2019-01-19T10:51:06.696Z,10.83
2019-01-19T10:53:48.104Z,11.20
2019-01-19T10:56:28.852Z,10.23
2019-01-19T10:59:09.736Z,9.97
2019-01-19T11:01:50.622Z,9.67
2019-01-19T11:04:31.258Z,10.07
2019-01-19T11:07:12.182Z,11.90
2019-01-19T11:09:53.748Z,10.60
2019-01-19T11:12:34.309Z,10.33
2019-01-19T11:15:15.088Z,10.90
2019-01-19T11:17:56.528Z,10.27
2019-01-19T11:20:37.127Z,10.00
2019-01-19T11:23:17.781Z,10.87
2019-01-19T11:25:59.004Z,10.50
2019-01-19T11:28:39.695Z,9.87
2019-01-19T11:31:20.620Z,10.50
2019-01-19T11:34:02.929Z,9.83
2019-01-19T11:36:44.811Z,10.97
2019-01-19T11:39:26.298Z,9.13
2019-01-19T11:42:07.769Z,9.87
2019-01-19T11:44:49.411Z,9.50
2019-01-19T11:47:29.298Z,10.13
2019-01-19T11:50:29.969Z,9.83
2019-01-19T11:53:00.710Z,9.77
2019-01-19T11:55:42.146Z,9.93
2019-01-19T11:58:24.162Z,9.80
2019-01-19T12:01:07.226Z,10.13
2019-01-19T12:03:48.292Z,9.30
2019-01-19T12:06:29.270Z,9.30
2019-01-19T12:09:10.971Z,10.13
2019-01-19T12:11:52.122Z,10.30
2019-01-19T12:14:33.006Z,10.17
2019-01-19T12:17:14.147Z,10.47
2019-01-19T12:19:55.320Z,10.33
2019-01-19T12:22:36.625Z,8.77
2019-01-19T12:25:17.401Z,7.77
2019-01-19T12:27:58.019Z,8.80
2019-01-19T12:30:38.539Z,9.00
2019-01-19T12:33:19.416Z,10.40
2019-01-19T12:36:00.324Z,10.00
2019-01-19T12:38:41.005Z,9.63
2019-01-19T12:41:21.677Z,10.87
2019-01-19T12:44:02.249Z,10.23
2019-01-19T12:46:42.718Z,10.57
2019-01-19T12:49:23.604Z,10.10
2019-01-19T12:52:04.213Z,11.73
2019-01-19T12:54:45.998Z,10.83
2019-01-19T12:57:27.350Z,10.97
2019-01-19T13:00:08.917Z,10.93
2019-01-19T13:02:50.180Z,10.93
2019-01-19T13:05:33.074Z,10.90
2019-01-19T13:08:14.457Z,10.93
2019-01-19T13:10:55.985Z,10.43
2019-01-19T13:13:37.307Z,10.93
2019-01-19T13:16:17.903Z,11.60
2019-01-19T13:18:59.236Z,11.40
2019-01-19T13:21:40.572Z,12.17
2019-01-19T13:24:21.109Z,11.67
2019-01-19T13:27:01.724Z,12.13
2019-01-19T13:29:42.233Z,12.40
2019-01-19T13:32:23.557Z,12.60
2019-01-19T13:35:10.608Z,12.60
2019-01-19T13:38:18.024Z,12.67
2019-01-19T13:40:58.697Z,12.13
2019-01-19T13:43:39.429Z,13.33
2019-01-19T13:46:21.468Z,12.57
2019-01-19T13:49:02.947Z,12.13
2019-01-19T13:51:44.762Z,12.23
2019-01-19T13:54:52.244Z,12.50
2019-01-19T13:57:32.745Z,11.80
2019-01-19T14:00:18.628Z,11.90
2019-01-19T14:02:56.465Z,12.73
2019-01-19T14:05:37.845Z,13.00
2019-01-19T14:08:18.465Z,12.57
2019-01-19T14:10:59.609Z,13.30
2019-01-19T14:13:40.469Z,12.00
2019-01-19T14:16:22.025Z,14.00
2019-01-19T14:19:03.335Z,12.30
2019-01-19T14:22:04.105Z,11.93
2019-01-19T14:25:11.757Z,12.13
2019-01-19T14:27:52.600Z,11.43
2019-01-19T14:30:33.224Z,12.67
2019-01-19T14:33:13.784Z,12.43
2019-01-19T14:35:55.104Z,13.30
2019-01-19T14:38:35.881Z,12.90
2019-01-19T14:41:16.710Z,12.93
2019-01-19T14:43:59.071Z,12.67
2019-01-19T14:46:40.309Z,13.03
2019-01-19T14:49:21.708Z,12.43
2019-01-19T14:52:02.383Z,12.70
2019-01-19T14:55:03.098Z,12.63
2019-01-19T14:58:10.721Z,13.03
2019-01-19T15:00:51.944Z,12.37
2019-01-19T15:03:33.136Z,12.60
2019-01-19T15:06:13.883Z,13.47
2019-01-19T15:08:54.789Z,13.63
2019-01-19T15:11:35.896Z,13.30
2019-01-19T15:14:17.206Z,13.20
2019-01-19T15:16:58.018Z,13.27
2019-01-19T15:19:39.484Z,13.10
2019-01-19T15:22:21.179Z,14.30
2019-01-19T15:25:02.296Z,13.67
2019-01-19T15:27:43.086Z,13.37
2019-01-19T15:30:23.757Z,13.73
2019-01-19T15:33:05.313Z,13.83
2019-01-19T15:35:45.952Z,13.00
2019-01-19T15:38:26.795Z,13.87
2019-01-19T15:41:07.566Z,13.80
2019-01-19T15:43:48.680Z,14.00
2019-01-19T15:46:29.356Z,13.80
2019-01-19T15:49:30.010Z,13.43
2019-01-19T15:52:37.493Z,14.73
2019-01-19T15:55:18.318Z,15.27
2019-01-19T15:57:58.901Z,14.70
2019-01-19T16:00:40.396Z,14.87
2019-01-19T16:03:21.030Z,14.90
2019-01-19T16:06:02.096Z,15.30
2019-01-19T16:08:43.080Z,15.70
2019-01-19T16:11:23.953Z,16.10
2019-01-19T16:14:04.680Z,16.37
2019-01-19T16:16:45.561Z,16.00
2019-01-19T16:19:26.436Z,14.80
2019-01-19T16:22:07.243Z,15.33
2019-01-19T16:24:48.225Z,16.03
2019-01-19T16:27:29.332Z,16.90
2019-01-19T16:30:09.824Z,16.77
2019-01-19T16:32:50.696Z,15.73
2019-01-19T16:35:32.017Z,16.07
2019-01-19T16:38:13.495Z,16.80
2019-01-19T16:40:54.037Z,15.57
2019-01-19T16:43:35.448Z,16.47
2019-01-19T16:46:16.011Z,15.87
2019-01-19T16:48:56.852Z,15.97
2019-01-19T16:51:38.133Z,15.63
2019-01-19T16:54:19.675Z,15.77
2019-01-19T16:57:04.249Z,16.73
2019-01-19T17:00:07.995Z,15.87
2019-01-19T17:03:15.406Z,16.37
2019-01-19T17:05:56.785Z,15.53
2019-01-19T17:08:38.107Z,17.07
2019-01-19T17:11:18.894Z,16.10
2019-01-19T17:14:00.291Z,15.40
2019-01-19T17:16:41.480Z,16.00
2019-01-19T17:19:22.895Z,14.67
2019-01-19T17:22:03.565Z,15.97
2019-01-19T17:24:44.948Z,14.90
2019-01-19T17:27:26.288Z,15.03
2019-01-19T17:30:07.040Z,15.53
2019-01-19T17:32:48.489Z,14.53
2019-01-19T17:35:29.368Z,14.90
2019-01-19T17:38:10.716Z,15.40
2019-01-19T17:40:51.489Z,14.93
2019-01-19T17:43:32.861Z,15.40
2019-01-19T17:46:14.204Z,14.97
2019-01-19T17:48:54.841Z,15.13
2019-01-19T17:51:35.556Z,15.60
2019-01-19T17:54:16.946Z,15.00
2019-01-19T17:56:58.417Z,16.03
2019-01-19T17:59:39.821Z,15.37
2019-01-19T18:02:20.397Z,14.93
2019-01-19T18:05:01.727Z,15.73
2019-01-19T18:07:42.496Z,14.57
2019-01-19T18:10:23.896Z,16.00
2019-01-19T18:13:04.450Z,14.47
2019-01-19T18:16:03.994Z,15.03
2019-01-19T18:19:11.396Z,16.80
2019-01-19T18:21:58.312Z,16.10
2019-01-19T18:25:12.087Z,21.20
2019-01-19T18:28:19.689Z,19.87
2019-01-19T18:31:01.129Z,15.70
2019-01-19T18:33:42.344Z,14.80
2019-01-19T18:36:22.926Z,15.10
2019-01-19T18:39:05.072Z,14.83
2019-01-19T18:41:46.226Z,15.43
2019-01-19T18:44:26.860Z,16.07
2019-01-19T18:47:08.313Z,16.17
2019-01-19T18:49:48.961Z,17.60
2019-01-19T18:56:24.113Z,16.23
2019-01-19T18:59:31.562Z,16.53
2019-01-19T19:02:12.132Z,17.43
2019-01-19T19:04:52.823Z,16.73
2019-01-19T19:07:34.166Z,17.07
2019-01-19T19:10:15.424Z,18.53
2019-01-19T19:12:56.466Z,18.43
2019-01-19T19:15:37.788Z,18.33
2019-01-19T19:18:18.451Z,18.20
2019-01-19T19:20:59.270Z,18.03
2019-01-19T19:23:39.802Z,18.57
2019-01-19T19:26:20.625Z,18.43
2019-01-19T19:29:01.552Z,18.43
2019-01-19T19:31:42.508Z,17.97
2019-01-19T19:34:49.989Z,19.10
2019-01-19T19:37:57.470Z,18.40
2019-01-19T19:40:38.623Z,17.90
2019-01-19T19:43:19.229Z,18.93
2019-01-19T19:46:02.777Z,18.37
2019-01-19T19:48:44.073Z,18.53
2019-01-19T19:51:24.853Z,17.67
2019-01-19T19:54:05.656Z,18.70
2019-01-19T19:56:44.237Z,17.43
2019-01-19T19:59:32.592Z,18.17
2019-01-19T20:02:13.569Z,18.23
2019-01-19T20:04:54.777Z,18.33
2019-01-19T20:07:36.199Z,20.23
2019-01-19T20:10:17.483Z,21.53
2019-01-19T20:12:58.073Z,20.73
2019-01-19T20:15:38.824Z,20.57
2019-01-19T20:18:19.740Z,18.43
2019-01-19T20:21:00.391Z,17.93
2019-01-19T20:23:41.920Z,18.03
2019-01-19T20:26:22.811Z,16.73
2019-01-19T20:29:04.321Z,16.70
2019-01-19T20:31:45.660Z,16.33
2019-01-19T20:34:26.408Z,16.60
2019-01-19T20:37:08.001Z,16.40
2019-01-19T20:39:48.696Z,16.40
2019-01-19T20:42:29.360Z,20.23
2019-01-19T20:45:10.233Z,19.43
2019-01-19T20:47:51.040Z,18.70
2019-01-19T20:50:31.769Z,17.77
2019-01-19T20:53:12.336Z,19.77
2019-01-19T20:55:53.130Z,18.13
2019-01-19T20:58:34.521Z,16.07
2019-01-19T21:01:15.732Z,16.73
2019-01-19T21:03:56.312Z,16.30
2019-01-19T21:06:37.218Z,17.30
2019-01-19T21:09:18.570Z,17.30
2019-01-19T21:11:59.202Z,18.23
2019-01-19T21:14:40.530Z,17.37
2019-01-19T21:17:21.348Z,16.87
2019-01-19T21:20:03.153Z,17.20
2019-01-19T21:22:44.224Z,16.77
2019-01-19T21:25:24.989Z,18.03
2019-01-19T21:28:05.700Z,18.33
2019-01-19T21:30:46.411Z,17.33
2019-01-19T21:33:27.113Z,17.17
2019-01-19T21:36:07.799Z,18.40
2019-01-19T21:38:49.255Z,20.50
2019-01-19T21:41:30.551Z,21.53
2019-01-19T21:44:11.118Z,23.53
2019-01-19T21:46:51.620Z,20.70
2019-01-19T21:49:32.312Z,20.17
2019-01-19T21:52:13.221Z,20.63
2019-01-19T21:54:54.623Z,20.63
2019-01-19T21:57:35.170Z,20.63
2019-01-19T22:00:15.893Z,20.73
2019-01-19T22:02:57.247Z,19.83
2019-01-19T22:05:38.021Z,20.00
2019-01-19T22:08:19.144Z,21.10
2019-01-19T22:11:00.436Z,21.17
2019-01-19T22:13:40.924Z,20.27
2019-01-19T22:16:22.372Z,21.13
2019-01-19T22:19:02.836Z,21.80
2019-01-19T22:21:43.668Z,21.13
2019-01-19T22:24:24.393Z,21.70
2019-01-19T22:27:06.661Z,22.47
2019-01-19T22:29:47.768Z,21.30
2019-01-19T22:32:29.198Z,21.03
2019-01-19T22:35:10.617Z,21.03
2019-01-19T22:37:51.252Z,21.07
2019-01-19T22:40:32.549Z,20.23
2019-01-19T22:43:13.715Z,21.13
2019-01-19T22:45:54.978Z,19.70
2019-01-19T22:48:34.489Z,20.87
2019-01-19T22:51:15.318Z,19.97
2019-01-19T22:53:56.728Z,20.57
2019-01-19T22:56:38.132Z,19.80
2019-01-19T22:59:18.842Z,19.57
2019-01-19T23:01:59.627Z,18.87
2019-01-19T23:04:40.942Z,19.00
2019-01-19T23:07:22.564Z,18.83
2019-01-19T23:10:03.372Z,19.40
2019-01-19T23:12:44.260Z,20.13
2019-01-19T23:15:25.725Z,18.23
2019-01-19T23:18:07.373Z,19.23
2019-01-19T23:20:48.712Z,19.00
2019-01-19T23:23:29.376Z,19.03
2019-01-19T23:26:10.608Z,19.80
2019-01-19T23:28:51.517Z,18.70
2019-01-19T23:31:32.161Z,19.40
2019-01-19T23:34:13.368Z,18.10
2019-01-19T23:36:54.789Z,18.53
2019-01-19T23:39:35.593Z,18.40
2019-01-19T23:42:16.772Z,18.73
2019-01-19T23:44:58.267Z,18.60
2019-01-19T23:47:38.805Z,17.57
2019-01-19T23:50:20.240Z,18.30
2019-01-19T23:53:00.860Z,18.73
2019-01-19T23:55:40.321Z,17.83
